Time;durP1;ratioP1;P1;durP2;ratioP2;P2;SDS_P1;SDS_P2;PMS_P1;PMS_P2;Temp;Humidity;BMP_temperature;BMP_pressure;BME280_temperature;BME280_humidity;BME280_pressure;Samples;Min_cycle;Max_cycle;Signal;HPM_P1;HPM_P2
2023/05/28 00:01:59;;;;;;;31.33;10.13;;;;;;;10.58;100.00;102321.75;5036205;28;20033;-80
2023/05/28 00:04:24;;;;;;;33.88;9.27;;;;;;;10.56;100.00;102314.81;5036098;28;20415;-80
2023/05/28 00:06:52;;;;;;;26.70;9.18;;;;;;;10.52;100.00;102307.97;5036387;28;20052;-80
2023/05/28 00:09:19;;;;;;;22.33;9.20;;;;;;;10.47;100.00;102310.09;5035775;28;20037;-79
2023/05/28 00:11:44;;;;;;;26.63;8.73;;;;;;;10.45;100.00;102317.31;5036195;28;20044;-80
2023/05/28 00:14:12;;;;;;;34.03;9.98;;;;;;;10.40;100.00;102321.16;5034543;28;20052;-80
2023/05/28 00:16:37;;;;;;;20.17;8.85;;;;;;;10.36;100.00;102297.50;5036406;28;20041;-79
2023/05/28 00:19:04;;;;;;;25.20;9.25;;;;;;;10.33;100.00;102297.66;5036094;28;20029;-78
2023/05/28 00:21:32;;;;;;;23.33;9.88;;;;;;;10.29;100.00;102298.84;5035489;28;20037;-81
2023/05/28 00:23:58;;;;;;;25.50;9.18;;;;;;;10.24;100.00;102300.00;5034371;28;20215;-79
2023/05/28 00:26:24;;;;;;;22.77;9.13;;;;;;;10.20;100.00;102298.47;5035270;28;20037;-79
2023/05/28 00:28:49;;;;;;;20.35;8.93;;;;;;;10.17;100.00;102287.19;5035899;28;20041;-80
2023/05/28 00:31:15;;;;;;;32.22;8.93;;;;;;;10.12;100.00;102290.16;5035486;28;20517;-80
2023/05/28 00:33:40;;;;;;;26.90;9.55;;;;;;;10.09;100.00;102295.69;5040463;28;20038;-80
2023/05/28 00:36:06;;;;;;;26.90;10.30;;;;;;;10.08;100.00;102296.63;5044261;28;20030;-79
2023/05/28 00:38:31;;;;;;;27.60;10.35;;;;;;;10.06;100.00;102295.88;5042175;28;20356;-79
2023/05/28 00:40:56;;;;;;;29.25;9.90;;;;;;;10.02;100.00;102291.72;5035989;28;20069;-79
2023/05/28 00:43:22;;;;;;;34.95;10.68;;;;;;;9.99;100.00;102284.78;5035179;28;20083;-81
2023/05/28 00:45:50;;;;;;;32.13;9.88;;;;;;;9.96;100.00;102284.16;5034113;28;20025;-80
2023/05/28 00:48:16;;;;;;;22.52;8.95;;;;;;;9.93;100.00;102274.56;5033437;28;20042;-78
2023/05/28 00:50:42;;;;;;;26.42;9.15;;;;;;;9.92;100.00;102280.81;5033372;28;20037;-78
2023/05/28 00:53:08;;;;;;;31.58;11.07;;;;;;;9.87;100.00;102280.28;5033001;28;20037;-78
2023/05/28 00:55:34;;;;;;;24.77;9.80;;;;;;;9.85;100.00;102282.16;5033077;28;20026;-78
2023/05/28 00:58:05;;;;;;;28.42;9.45;;;;;;;9.80;100.00;102276.31;5033295;28;20029;-78
2023/05/28 01:00:32;;;;;;;30.67;9.55;;;;;;;9.76;100.00;102282.75;5033272;28;20025;-77
2023/05/28 01:02:57;;;;;;;29.55;10.23;;;;;;;9.71;100.00;102280.41;5033083;28;20025;-78
2023/05/28 01:05:23;;;;;;;22.80;9.30;;;;;;;9.69;100.00;102290.28;5033105;28;20472;-80
2023/05/28 01:07:48;;;;;;;28.05;9.98;;;;;;;9.67;100.00;102295.69;5033151;28;20034;-77
2023/05/28 01:10:14;;;;;;;27.98;10.43;;;;;;;9.61;100.00;102288.09;5033323;28;20137;-77
2023/05/28 01:12:42;;;;;;;20.40;8.80;;;;;;;9.58;100.00;102287.44;5033301;28;20120;-78
2023/05/28 01:15:09;;;;;;;25.33;8.88;;;;;;;9.57;100.00;102275.09;5033570;28;20162;-78
2023/05/28 01:17:36;;;;;;;32.83;10.38;;;;;;;9.54;100.00;102281.47;5032705;28;20057;-78
2023/05/28 01:20:10;;;;;;;34.33;11.85;;;;;;;9.60;100.00;102289.06;5032395;28;20087;-79
2023/05/28 01:22:38;;;;;;;25.42;10.63;;;;;;;9.67;100.00;102287.72;5032913;28;20164;-78
2023/05/28 01:25:09;;;;;;;32.08;12.05;;;;;;;9.69;100.00;102282.31;5030988;28;20109;-78
2023/05/28 01:27:38;;;;;;;38.13;12.77;;;;;;;9.73;100.00;102282.97;5032819;28;20041;-78
2023/05/28 01:30:07;;;;;;;29.73;10.88;;;;;;;9.73;100.00;102297.09;5032644;28;20036;-77
2023/05/28 01:32:32;;;;;;;29.25;11.48;;;;;;;9.74;100.00;102295.31;5032057;28;20033;-79
2023/05/28 01:34:57;;;;;;;32.13;10.40;;;;;;;9.74;100.00;102293.50;5032755;28;20029;-79
2023/05/28 01:37:24;;;;;;;28.98;11.40;;;;;;;9.75;100.00;102286.34;5032550;28;20488;-80
2023/05/28 01:39:51;;;;;;;33.40;11.25;;;;;;;9.71;100.00;102288.38;5032317;28;20079;-78
2023/05/28 01:42:17;;;;;;;28.02;9.75;;;;;;;9.64;100.00;102290.59;5032503;28;20042;-78
2023/05/28 01:44:43;;;;;;;21.20;9.15;;;;;;;9.58;100.00;102287.44;5032228;28;20077;-77
2023/05/28 01:47:12;;;;;;;38.67;10.15;;;;;;;9.53;100.00;102285.94;5032199;28;20030;-78
2023/05/28 01:49:38;;;;;;;32.45;11.88;;;;;;;9.47;100.00;102282.81;5032220;28;20033;-78
2023/05/28 01:52:04;;;;;;;27.38;10.43;;;;;;;9.41;100.00;102283.19;5031658;28;20445;-78
2023/05/28 01:54:30;;;;;;;36.80;11.43;;;;;;;9.36;100.00;102280.84;5030520;28;20518;-78
2023/05/28 01:56:55;;;;;;;31.00;10.48;;;;;;;9.33;100.00;102283.66;5032049;28;20152;-78
2023/05/28 01:59:21;;;;;;;27.67;11.05;;;;;;;9.29;100.00;102285.66;5031954;28;20025;-79
2023/05/28 02:01:46;;;;;;;32.15;10.55;;;;;;;9.29;100.00;102285.66;5031679;28;20037;-79
2023/05/28 02:04:11;;;;;;;28.95;11.02;;;;;;;9.26;100.00;102279.69;5031721;28;20041;-78
2023/05/28 02:06:37;;;;;;;30.48;10.88;;;;;;;9.23;100.00;102286.06;5013570;28;20033;-78
2023/05/28 02:09:03;;;;;;;37.50;11.85;;;;;;;9.22;100.00;102279.03;5031575;28;20025;-79
2023/05/28 02:11:28;;;;;;;27.95;10.98;;;;;;;9.18;100.00;102281.03;5031530;28;20029;-79
2023/05/28 02:13:54;;;;;;;18.98;9.35;;;;;;;9.11;100.00;102278.84;5031335;28;20525;-78
2023/05/28 02:16:20;;;;;;;28.42;9.50;;;;;;;9.06;100.00;102275.59;5031698;28;20064;-79
2023/05/28 02:18:47;;;;;;;24.60;10.07;;;;;;;9.01;100.00;102273.22;5031624;28;20143;-79
2023/05/28 02:21:13;;;;;;;23.33;10.05;;;;;;;8.97;100.00;102271.72;5031366;28;20401;-79
2023/05/28 02:23:43;;;;;;;33.17;12.60;;;;;;;8.95;100.00;102270.97;5030928;28;20149;-79
2023/05/28 02:26:09;;;;;;;24.33;10.73;;;;;;;8.92;100.00;102274.66;5014354;28;20049;-79
2023/05/28 02:28:34;;;;;;;21.00;10.07;;;;;;;8.89;100.00;102276.66;5031832;28;20063;-79
2023/05/28 02:31:00;;;;;;;42.55;12.57;;;;;;;8.94;100.00;102287.81;5031169;28;20458;-78
2023/05/28 02:33:25;;;;;;;39.35;13.60;;;;;;;8.98;100.00;102281.38;5031497;28;20025;-79
2023/05/28 02:35:51;;;;;;;32.05;12.55;;;;;;;9.01;100.00;102281.19;5031370;28;20393;-78
2023/05/28 02:38:16;;;;;;;28.80;11.93;;;;;;;9.01;100.00;102283.84;5029722;28;20045;-79
2023/05/28 02:40:42;;;;;;;32.30;12.65;;;;;;;9.02;100.00;102290.88;5031188;28;20086;-79
2023/05/28 02:43:07;;;;;;;41.13;12.82;;;;;;;9.06;100.00;102288.88;5031416;28;20037;-78
2023/05/28 02:45:32;;;;;;;28.88;12.30;;;;;;;9.07;100.00;102288.78;5031553;28;20029;-79
2023/05/28 02:47:58;;;;;;;35.60;12.80;;;;;;;9.08;100.00;102285.19;5031324;28;20044;-79
2023/05/28 02:50:23;;;;;;;34.80;11.90;;;;;;;9.05;100.00;102281.88;5029396;28;20079;-80
2023/05/28 02:52:49;;;;;;;29.83;11.75;;;;;;;9.01;100.00;102289.16;5030904;28;20112;-79
2023/05/28 02:55:14;;;;;;;32.50;12.20;;;;;;;8.97;100.00;102284.97;5030024;28;20076;-79
2023/05/28 02:57:40;;;;;;;35.25;12.40;;;;;;;8.95;100.00;102282.41;5012524;28;20033;-80
2023/05/28 03:00:09;;;;;;;38.50;13.10;;;;;;;8.95;100.00;102281.56;4996846;28;20053;-79
2023/05/28 03:02:34;;;;;;;36.83;12.95;;;;;;;8.94;100.00;102287.81;5031016;28;20270;-79
2023/05/28 03:05:02;;;;;;;31.65;12.20;;;;;;;8.91;100.00;102280.91;5029161;28;20128;-79
2023/05/28 03:07:30;;;;;;;30.25;10.55;;;;;;;8.88;100.00;102294.34;5029668;28;20041;-80
2023/05/28 03:09:57;;;;;;;30.45;10.57;;;;;;;8.82;100.00;102284.97;5030262;28;20048;-79
2023/05/28 03:12:22;;;;;;;36.08;11.45;;;;;;;8.76;100.00;102280.03;5030833;28;20069;-79
2023/05/28 03:14:47;;;;;;;37.70;13.18;;;;;;;8.73;100.00;102290.84;5030866;28;20068;-80
2023/05/28 03:17:13;;;;;;;28.65;11.40;;;;;;;8.69;100.00;102289.31;5030699;28;20034;-80
2023/05/28 03:19:38;;;;;;;23.00;10.55;;;;;;;8.62;100.00;102282.66;5030936;28;20041;-83
2023/05/28 03:22:04;;;;;;;32.13;10.90;;;;;;;8.56;100.00;102285.69;5030636;28;20042;-79
2023/05/28 03:24:30;;;;;;;22.83;10.02;;;;;;;8.51;100.00;102291.25;5028877;28;20056;-79
2023/05/28 03:26:57;;;;;;;25.85;10.93;;;;;;;8.46;100.00;102295.97;5030963;28;20061;-80
2023/05/28 03:29:22;;;;;;;29.15;11.23;;;;;;;8.41;100.00;102288.25;5030869;28;20034;-79
2023/05/28 03:31:47;;;;;;;27.40;10.07;;;;;;;8.41;100.00;102287.41;5030339;28;20036;-80
2023/05/28 03:34:13;;;;;;;34.50;11.10;;;;;;;8.36;100.00;102290.31;5030751;28;20099;-80
2023/05/28 03:36:42;;;;;;;30.50;11.85;;;;;;;8.36;100.00;102284.16;5030296;28;20030;-80
2023/05/28 03:39:08;;;;;;;26.50;10.52;;;;;;;8.32;100.00;102291.44;5030518;28;20529;-79
2023/05/28 03:41:35;;;;;;;30.20;10.70;;;;;;;8.27;100.00;102291.72;5028807;28;20174;-80
2023/05/28 03:44:00;;;;;;;19.23;9.60;;;;;;;8.22;100.00;102285.78;5030265;28;20036;-80
2023/05/28 03:46:26;;;;;;;23.98;9.98;;;;;;;8.20;100.00;102295.66;5030625;28;20038;-79
2023/05/28 03:48:51;;;;;;;24.80;9.55;;;;;;;8.14;100.00;102277.44;5030286;28;20108;-79
2023/05/28 03:51:17;;;;;;;18.65;8.93;;;;;;;8.12;100.00;102289.91;5030365;28;20056;-80
2023/05/28 03:53:43;;;;;;;23.30;10.07;;;;;;;8.11;100.00;102299.66;5030827;28;20109;-79
2023/05/28 03:56:08;;;;;;;27.85;10.32;;;;;;;8.09;100.00;102300.69;5030414;28;20076;-79
2023/05/28 03:58:33;;;;;;;24.00;10.27;;;;;;;8.09;100.00;102298.03;5032736;28;20032;-79
2023/05/28 04:01:00;;;;;;;27.35;9.35;;;;;;;8.10;100.00;102305.91;5031618;28;20115;-79
2023/05/28 04:03:25;;;;;;;27.35;11.10;;;;;;;8.19;100.00;102316.94;5031836;28;20060;-77
2023/05/28 04:05:51;;;;;;;34.40;11.98;;;;;;;8.30;100.00;102310.09;5031324;28;20327;-77
2023/05/28 04:08:17;;;;;;;30.17;11.23;;;;;;;8.40;100.00;102306.91;5033284;28;20025;-79
2023/05/28 04:10:42;;;;;;;29.02;11.50;;;;;;;8.48;100.00;102302.06;5031790;28;20351;-78
2023/05/28 04:13:08;;;;;;;33.25;11.23;;;;;;;8.52;100.00;102308.84;5032278;28;20128;-78
2023/05/28 04:15:33;;;;;;;33.30;12.40;;;;;;;8.57;100.00;102313.91;5029923;28;20026;-78
2023/05/28 04:17:59;;;;;;;33.00;11.80;;;;;;;8.58;100.00;102310.31;5030348;28;20068;-78
2023/05/28 04:20:24;;;;;;;31.30;11.40;;;;;;;8.58;100.00;102307.66;5029648;28;20037;-79
2023/05/28 04:22:50;;;;;;;29.33;11.40;;;;;;;8.60;100.00;102319.06;5029518;28;20456;-81
2023/05/28 04:25:18;;;;;;;28.55;10.02;;;;;;;8.58;100.00;102321.78;5029835;28;20049;-78
2023/05/28 04:27:44;;;;;;;30.27;11.23;;;;;;;8.59;100.00;102309.38;5028244;28;20092;-78
2023/05/28 04:30:11;;;;;;;30.35;11.57;;;;;;;8.62;100.00;102317.16;5028336;28;20037;-79
2023/05/28 04:32:39;;;;;;;26.77;11.15;;;;;;;8.60;100.00;102314.59;5030120;28;20105;-78
2023/05/28 04:35:10;;;;;;;32.00;11.13;;;;;;;8.62;100.00;102315.34;5029439;28;20184;-79
2023/05/28 04:37:39;;;;;;;28.00;11.25;;;;;;;8.66;100.00;102316.03;5031208;28;20040;-78
2023/05/28 04:40:11;;;;;;;26.70;11.00;;;;;;;8.69;100.00;102307.00;5033473;28;20029;-78
2023/05/28 04:42:37;;;;;;;30.13;10.43;;;;;;;8.72;100.00;102314.78;5033331;28;20112;-79
2023/05/28 04:45:04;;;;;;;26.10;10.02;;;;;;;8.75;100.00;102312.81;5015705;28;20383;-79
2023/05/28 04:47:29;;;;;;;21.13;9.75;;;;;;;8.79;100.00;102311.72;5032763;28;20073;-79
2023/05/28 04:49:57;;;;;;;27.90;11.35;;;;;;;8.86;100.00;102309.53;5032768;28;20048;-79
2023/05/28 04:52:23;;;;;;;35.55;12.07;;;;;;;8.90;100.00;102313.72;5033128;28;20029;-79
2023/05/28 04:54:48;;;;;;;22.38;10.30;;;;;;;8.94;100.00;102311.72;5031363;28;20056;-79
2023/05/28 04:57:13;;;;;;;32.55;11.20;;;;;;;8.98;100.00;102305.28;5032700;28;20085;-78
2023/05/28 04:59:39;;;;;;;30.65;11.13;;;;;;;9.03;100.00;102303.19;5032835;28;20068;-76
2023/05/28 05:02:05;;;;;;;36.60;12.00;;;;;;;9.08;100.00;102305.59;5032646;28;20465;-78
2023/05/28 05:04:30;;;;;;;35.15;11.27;;;;;;;9.12;100.00;102304.44;5032831;28;20025;-79
2023/05/28 05:06:56;;;;;;;28.25;12.20;;;;;;;9.22;100.00;102308.22;5031222;28;20037;-82
2023/05/28 05:09:22;;;;;;;32.80;10.80;;;;;;;9.31;100.00;102328.06;5032598;28;20136;-79
2023/05/28 05:11:48;;;;;;;27.98;11.68;;;;;;;9.42;100.00;102327.41;5031149;28;20362;-79
2023/05/28 05:14:13;;;;;;;32.70;12.05;;;;;;;9.51;100.00;102321.53;5032453;28;20025;-79
2023/05/28 05:16:40;;;;;;;32.35;12.40;;;;;;;9.60;100.00;102328.06;5032553;28;20481;-79
2023/05/28 05:19:06;;;;;;;29.83;11.23;;;;;;;9.67;100.00;102332.91;5030876;28;20445;-79
2023/05/28 05:21:31;;;;;;;47.50;13.43;;;;;;;9.82;100.00;102330.22;5032394;28;20029;-79
2023/05/28 05:23:57;;;;;;;33.95;11.75;;;;;;;9.93;100.00;102321.53;5032466;28;20045;-78
2023/05/28 05:26:22;;;;;;;32.90;12.00;;;;;;;10.04;100.00;102324.38;5032589;28;20371;-79
2023/05/28 05:28:48;;;;;;;34.38;12.25;;;;;;;10.16;100.00;102318.25;5031194;28;20063;-78
2023/05/28 05:31:13;;;;;;;31.38;10.73;;;;;;;10.27;100.00;102319.34;5032668;28;20048;-78
2023/05/28 05:33:42;;;;;;;33.15;11.50;;;;;;;10.37;100.00;102320.50;5031280;28;20529;-79
2023/05/28 05:36:09;;;;;;;26.38;10.80;;;;;;;10.46;100.00;102325.19;5032401;28;20443;-79
2023/05/28 05:38:35;;;;;;;24.98;10.57;;;;;;;10.58;100.00;102323.53;5031034;28;20033;-80
2023/05/28 05:41:01;;;;;;;32.25;11.45;;;;;;;10.69;100.00;102331.66;5031905;28;20052;-81
2023/05/28 05:43:26;;;;;;;33.00;10.10;;;;;;;10.77;100.00;102323.16;5032168;28;20034;-81
2023/05/28 05:45:52;;;;;;;30.13;10.55;;;;;;;10.88;100.00;102333.94;5014518;28;20047;-80
2023/05/28 05:48:17;;;;;;;27.15;10.93;;;;;;;11.02;100.00;102342.78;5031778;28;20030;-80
2023/05/28 05:50:50;;;;;;;28.02;10.73;;;;;;;11.17;100.00;102340.88;5030057;28;20064;-80
2023/05/28 05:53:16;;;;;;;27.25;10.82;;;;;;;11.28;100.00;102330.31;5031886;28;20040;-80
2023/05/28 05:55:41;;;;;;;28.20;8.95;;;;;;;11.40;100.00;102332.09;5032036;28;20060;-79
2023/05/28 05:58:07;;;;;;;23.00;9.20;;;;;;;11.53;100.00;102333.94;5031743;28;20388;-80
2023/05/28 06:00:33;;;;;;;27.92;9.02;;;;;;;11.62;100.00;102335.94;5031712;28;20025;-81
2023/05/28 06:02:58;;;;;;;25.17;8.82;;;;;;;11.66;100.00;102334.75;5032020;28;20482;-80
2023/05/28 06:05:23;;;;;;;21.38;8.95;;;;;;;11.75;100.00;102336.75;5031482;28;20176;-80
2023/05/28 06:07:49;;;;;;;25.63;9.00;;;;;;;11.90;100.00;102340.13;5031955;28;20395;-79
2023/05/28 06:10:14;;;;;;;27.33;8.98;;;;;;;12.06;100.00;102331.03;5031960;28;20064;-80
2023/05/28 06:12:39;;;;;;;24.35;8.60;;;;;;;12.19;100.00;102328.31;5013342;28;20041;-80
2023/05/28 06:15:06;;;;;;;25.38;8.20;;;;;;;12.41;100.00;102336.44;5031466;28;20029;-79
2023/05/28 06:17:31;;;;;;;28.80;9.63;;;;;;;12.73;100.00;102327.81;5031504;28;20029;-80
2023/05/28 06:19:58;;;;;;;23.85;8.75;;;;;;;12.94;100.00;102327.13;5031576;28;20044;-80
2023/05/28 06:22:24;;;;;;;20.85;8.30;;;;;;;13.23;100.00;102317.69;5031452;28;20040;-79
2023/05/28 06:24:51;;;;;;;16.73;7.68;;;;;;;13.44;100.00;102317.00;5031522;28;20092;-79
2023/05/28 06:27:17;;;;;;;24.17;7.90;;;;;;;13.70;100.00;102320.28;5031154;28;20033;-79
2023/05/28 06:29:42;;;;;;;21.90;7.57;;;;;;;13.95;100.00;102318.28;5031011;28;20025;-79
2023/05/28 06:32:07;;;;;;;18.42;7.30;;;;;;;14.15;100.00;102311.28;5031353;28;20029;-79
2023/05/28 06:34:33;;;;;;;20.58;7.25;;;;;;;14.30;100.00;102314.50;5029716;28;20112;-79
2023/05/28 06:36:58;;;;;;;18.30;6.90;;;;;;;14.40;100.00;102312.78;5031289;28;20041;-78
2023/05/28 06:39:23;;;;;;;25.08;7.35;;;;;;;14.52;100.00;102302.03;5031175;28;20033;-78
2023/05/28 06:41:49;;;;;;;27.75;7.85;;;;;;;14.70;100.00;102313.03;5030993;28;20122;-79
2023/05/28 06:44:15;;;;;;;19.08;6.85;;;;;;;14.89;100.00;102313.16;5031109;28;20037;-79
2023/05/28 06:46:40;;;;;;;19.45;7.35;;;;;;;15.04;100.00;102318.19;5030846;28;20036;-80
2023/05/28 06:49:06;;;;;;;23.83;7.47;;;;;;;15.21;100.00;102322.09;5030790;28;20036;-81
2023/05/28 06:51:31;;;;;;;24.65;7.55;;;;;;;15.36;100.00;102319.91;5030978;28;20366;-81
2023/05/28 06:53:56;;;;;;;23.92;7.85;;;;;;;15.51;100.00;102323.94;5031035;28;20120;-81
2023/05/28 06:56:22;;;;;;;18.55;7.70;;;;;;;15.69;100.00;102324.13;5031553;28;20037;-81
2023/05/28 06:58:49;;;;;;;23.40;7.47;;;;;;;15.90;100.00;102318.69;5030150;28;20510;-81
2023/05/28 07:01:14;;;;;;;19.90;7.35;;;;;;;16.02;100.00;102319.44;5028923;28;20128;-81
2023/05/28 07:03:42;;;;;;;19.73;7.55;;;;;;;16.12;100.00;102316.75;5030900;28;20045;-82
2023/05/28 07:06:08;;;;;;;22.55;7.22;;;;;;;16.31;100.00;102319.44;5029012;28;20121;-82
2023/05/28 07:08:34;;;;;;;18.38;6.88;;;;;;;16.48;100.00;102330.47;5029670;28;20036;-81
2023/05/28 07:10:59;;;;;;;21.95;7.88;;;;;;;16.59;100.00;102326.81;5030702;28;20033;-81
2023/05/28 07:13:24;;;;;;;20.92;7.32;;;;;;;16.74;100.00;102336.13;5030749;28;20037;-83
2023/05/28 07:15:50;;;;;;;25.45;7.32;;;;;;;16.88;100.00;102340.22;5030509;28;20034;-72
2023/05/28 07:18:15;;;;;;;20.50;6.95;;;;;;;17.05;100.00;102334.09;5030387;28;20025;-73
2023/05/28 07:20:41;;;;;;;14.65;6.50;;;;;;;17.21;100.00;102333.50;5028872;28;20371;-74
2023/05/28 07:23:06;;;;;;;18.52;6.97;;;;;;;17.42;100.00;102337.78;5030238;28;20065;-74
2023/05/28 07:25:32;;;;;;;19.45;6.68;;;;;;;17.49;100.00;102335.38;5030036;28;20150;-74
2023/05/28 07:27:57;;;;;;;16.70;6.55;;;;;;;17.41;100.00;102334.25;5029063;28;20030;-73
2023/05/28 07:30:22;;;;;;;18.50;7.10;;;;;;;17.43;100.00;102345.72;5028907;28;20368;-73
2023/05/28 07:32:48;;;;;;;18.50;7.05;;;;;;;17.45;100.00;102348.25;5030479;28;20414;-74
2023/05/28 07:35:13;;;;;;;31.25;6.95;;;;;;;17.49;100.00;102348.81;5030577;28;20391;-73
2023/05/28 07:37:39;;;;;;;19.60;6.68;;;;;;;17.42;100.00;102349.44;5030061;28;20083;-73
2023/05/28 07:40:05;;;;;;;24.90;6.88;;;;;;;17.44;100.00;102343.91;5030576;28;20040;-73
2023/05/28 07:42:30;;;;;;;17.40;6.43;;;;;;;17.55;100.00;102349.06;5030008;28;20052;-74
2023/05/28 07:44:56;;;;;;;16.08;6.38;;;;;;;17.60;100.00;102344.09;5030120;28;20169;-78
2023/05/28 07:47:21;;;;;;;19.30;7.20;;;;;;;17.71;100.00;102344.91;5028832;28;20065;-75
2023/05/28 07:49:47;;;;;;;17.20;6.47;;;;;;;18.00;100.00;102349.31;5029683;28;20029;-74
2023/05/28 07:52:13;;;;;;;20.75;5.88;;;;;;;18.29;100.00;102344.56;5029915;28;20065;-72
2023/05/28 07:54:41;;;;;;;18.58;6.65;;;;;;;18.68;100.00;102346.91;5030241;28;20038;-73
2023/05/28 07:57:07;;;;;;;18.15;6.10;;;;;;;18.89;100.00;102350.31;5029534;28;20099;-73
2023/05/28 07:59:32;;;;;;;14.18;5.57;;;;;;;19.05;100.00;102339.66;5029830;28;20072;-74
2023/05/28 08:01:58;;;;;;;19.67;5.85;;;;;;;19.21;100.00;102344.28;5030260;28;20208;-73
2023/05/28 08:04:23;;;;;;;15.52;5.88;;;;;;;19.43;100.00;102348.28;5028381;28;20223;-75
2023/05/28 08:06:49;;;;;;;14.25;5.53;;;;;;;19.61;100.00;102345.50;5029949;28;20132;-75
2023/05/28 08:09:17;;;;;;;15.73;5.82;;;;;;;19.50;100.00;102343.94;5029637;28;20125;-74
2023/05/28 08:11:43;;;;;;;16.75;6.00;;;;;;;19.46;100.00;102339.00;5029874;28;20319;-74
2023/05/28 08:14:08;;;;;;;19.02;6.07;;;;;;;19.54;100.00;102349.84;5033359;28;20116;-74
2023/05/28 08:16:34;;;;;;;19.40;6.10;;;;;;;19.47;100.00;102349.66;5033589;28;20328;-74
2023/05/28 08:19:00;;;;;;;15.95;5.95;;;;;;;19.38;100.00;102343.38;5033684;28;20072;-74
2023/05/28 08:21:26;;;;;;;14.30;5.43;;;;;;;19.51;100.00;102347.47;5033499;28;20029;-75
2023/05/28 08:23:54;;;;;;;17.70;5.90;;;;;;;19.56;100.00;102351.38;5033693;28;20144;-75
2023/05/28 08:26:19;;;;;;;19.60;6.32;;;;;;;19.65;100.00;102346.03;5034170;28;20029;-74
2023/05/28 08:28:45;;;;;;;16.65;5.57;;;;;;;19.52;100.00;102346.47;5033509;28;20445;-73
2023/05/28 08:31:10;;;;;;;16.80;5.95;;;;;;;19.67;100.00;102342.13;5033468;28;20041;-74
2023/05/28 08:33:36;;;;;;;19.27;5.45;;;;;;;19.88;100.00;102340.88;5032203;28;20330;-74
2023/05/28 08:36:01;;;;;;;15.15;5.70;;;;;;;20.15;100.00;102345.16;5032474;28;20033;-76
2023/05/28 08:38:29;;;;;;;16.85;5.78;;;;;;;20.15;100.00;102339.75;5033548;28;20036;-73
2023/05/28 08:40:55;;;;;;;18.67;5.75;;;;;;;20.11;100.00;102338.44;5033364;28;20087;-73
2023/05/28 08:43:21;;;;;;;19.00;5.18;;;;;;;20.30;100.00;102342.66;5033345;28;20079;-73
2023/05/28 08:45:47;;;;;;;17.15;6.10;;;;;;;20.48;100.00;102341.66;5033422;28;20108;-73
2023/05/28 08:48:14;;;;;;;22.33;5.47;;;;;;;20.81;100.00;102344.38;5032469;28;20112;-73
2023/05/28 08:50:45;;;;;;;18.27;5.70;;;;;;;20.99;100.00;102341.50;5032699;28;20116;-75
2023/05/28 08:53:13;;;;;;;;;;;;;;;21.22;100.00;102344.31;5033396;28;20091;-74
2023/05/28 08:55:38;;;;;;;19.17;5.55;;;;;;;21.27;97.85;102341.94;5032305;28;19975;-73
2023/05/28 08:58:04;;;;;;;22.40;6.30;;;;;;;21.45;98.77;102345.28;5032536;28;20442;-74
2023/05/28 09:00:29;;;;;;;17.35;5.72;;;;;;;21.47;91.42;102335.09;5031322;28;20099;-74
2023/05/28 09:02:55;;;;;;;14.13;5.82;;;;;;;21.59;94.89;102337.47;5032553;28;20107;-74
2023/05/28 09:05:22;;;;;;;22.65;5.32;;;;;;;22.03;88.97;102334.16;5032625;28;20413;-74
2023/05/28 09:07:47;;;;;;;15.23;5.68;;;;;;;22.16;83.49;102339.00;5032302;28;20029;-75
2023/05/28 09:10:13;;;;;;;14.40;5.75;;;;;;;22.53;83.24;102340.13;5032398;28;20088;-74
2023/05/28 09:12:41;;;;;;;16.38;5.95;;;;;;;22.72;76.50;102338.75;5032178;28;20033;-75
2023/05/28 09:15:07;;;;;;;17.67;5.47;;;;;;;22.41;76.79;102338.84;5032232;28;20196;-75
2023/05/28 09:17:37;;;;;;;19.77;5.60;;;;;;;22.12;79.58;102340.38;5031043;28;20097;-73
2023/05/28 09:20:15;;;;;;;15.30;5.82;;;;;;;21.58;85.72;102333.06;5032280;28;20033;-74
2023/05/28 09:22:40;;;;;;;15.68;5.65;;;;;;;21.04;81.52;102339.13;5032179;28;20029;-74
2023/05/28 09:25:09;;;;;;;19.83;6.20;;;;;;;20.47;94.00;102342.66;5030397;28;20115;-75
2023/05/28 09:27:36;;;;;;;18.30;5.68;;;;;;;20.06;100.00;102346.16;5031938;28;20049;-77
2023/05/28 09:30:07;;;;;;;14.07;5.40;;;;;;;20.07;97.55;102337.06;5032426;28;20051;-75
2023/05/28 09:32:34;;;;;;;17.35;5.03;;;;;;;20.48;100.00;102345.22;5031932;28;20457;-75
2023/05/28 09:35:00;;;;;;;21.85;5.68;;;;;;;21.26;97.97;102346.50;5032168;28;20065;-76
2023/05/28 09:37:27;;;;;;;21.45;4.93;;;;;;;22.58;73.93;102345.81;5032062;28;20076;-76
2023/05/28 09:40:11;;;;;;;15.20;5.10;;;;;;;23.80;69.29;102339.25;5032248;28;20042;-75
2023/05/28 09:42:41;;;;;;;12.23;4.95;;;;;;;24.20;62.74;102338.88;5031797;28;20044;-76
2023/05/28 09:45:11;;;;;;;13.67;5.30;;;;;;;24.82;58.70;102331.91;5014851;28;20044;-74
2023/05/28 09:47:45;;;;;;;16.70;5.35;;;;;;;24.89;59.79;102343.69;5031819;28;20260;-73
2023/05/28 09:50:11;;;;;;;26.80;6.43;;;;;;;25.08;55.47;102341.28;5032483;28;20037;-74
2023/05/28 09:52:43;;;;;;;13.13;5.18;;;;;;;25.09;55.56;102341.09;5031032;28;20140;-74
2023/05/28 09:55:17;;;;;;;14.55;4.88;;;;;;;25.33;54.78;102339.81;5030679;28;20026;-74
2023/05/28 09:58:00;;;;;;;16.40;5.43;;;;;;;25.37;55.98;102332.06;5030513;28;20067;-75
2023/05/28 10:00:31;;;;;;;16.38;5.22;;;;;;;25.42;54.90;102335.00;5030300;28;20034;-72
2023/05/28 10:03:13;;;;;;;14.70;5.63;;;;;;;24.55;50.98;102337.09;5031714;28;20034;-75
2023/05/28 10:05:44;;;;;;;15.93;5.82;;;;;;;24.78;54.16;102339.66;5031770;28;20026;-73
2023/05/28 10:08:15;;;;;;;15.25;4.95;;;;;;;25.10;51.85;102334.63;5029810;28;20119;-74
2023/05/28 10:10:42;;;;;;;12.70;5.25;;;;;;;25.29;49.18;102327.59;5031760;28;20129;-75
2023/05/28 10:13:09;;;;;;;17.58;6.10;;;;;;;25.04;48.76;102340.03;5031318;28;20420;-74
2023/05/28 10:15:36;;;;;;;15.75;5.60;;;;;;;25.23;48.06;102330.28;5031196;28;20311;-72
2023/05/28 10:18:02;;;;;;;15.70;5.70;;;;;;;25.27;47.59;102331.56;5031308;28;20035;-74
2023/05/28 10:20:29;;;;;;;11.90;5.32;;;;;;;25.67;50.67;102335.34;5030994;28;20139;-74
2023/05/28 10:22:55;;;;;;;18.30;5.93;;;;;;;25.96;47.02;102322.44;5031297;28;20037;-73
2023/05/28 10:25:21;;;;;;;22.42;5.90;;;;;;;26.14;45.64;102334.66;5030689;28;20527;-73
2023/05/28 10:27:48;;;;;;;13.18;5.63;;;;;;;26.48;45.46;102330.91;5030893;28;20029;-74
2023/05/28 10:30:35;;;;;;;10.20;4.90;;;;;;;26.66;47.37;102332.19;5031098;28;20457;-75
2023/05/28 10:33:04;;;;;;;14.15;5.13;;;;;;;26.63;44.02;102335.31;5030763;28;20025;-77
2023/05/28 10:35:29;;;;;;;12.90;5.43;;;;;;;26.20;44.42;102331.13;5012413;28;20087;-75
2023/05/28 10:38:06;;;;;;;10.77;5.10;;;;;;;26.40;45.80;102333.84;5030999;28;20029;-75
2023/05/28 10:40:33;;;;;;;14.88;5.63;;;;;;;26.64;45.16;102339.75;5030562;28;20054;-74
2023/05/28 10:42:59;;;;;;;13.15;5.50;;;;;;;26.71;42.98;102333.25;5031197;28;20029;-74
2023/05/28 10:45:38;;;;;;;12.05;5.90;;;;;;;26.04;45.31;102335.06;5030946;28;20045;-78
2023/05/28 10:48:04;;;;;;;11.55;5.40;;;;;;;26.15;45.31;102336.34;5031070;28;20354;-75
2023/05/28 10:50:30;;;;;;;16.73;5.60;;;;;;;26.59;46.07;102332.19;5030870;28;20036;-76
2023/05/28 10:53:11;;;;;;;13.18;5.20;;;;;;;27.40;44.06;102324.75;5030170;28;20037;-77
2023/05/28 10:55:53;;;;;;;15.48;5.85;;;;;;;28.02;40.65;102329.69;5030688;28;20073;-79
2023/05/28 10:58:22;;;;;;;16.33;5.43;;;;;;;28.13;42.09;102326.28;5030725;28;20053;-78
2023/05/28 11:00:48;;;;;;;11.88;5.60;;;;;;;28.74;41.72;102326.63;5030505;28;20094;-73
2023/05/28 11:03:14;;;;;;;14.07;5.72;;;;;;;29.19;40.52;102327.22;5029202;28;20118;-78
2023/05/28 11:05:40;;;;;;;14.63;5.35;;;;;;;28.54;41.37;102327.63;5028876;28;20084;-76
2023/05/28 11:08:06;;;;;;;12.20;4.93;;;;;;;28.15;39.25;102327.69;5028956;28;20386;-79
2023/05/28 11:10:33;;;;;;;11.68;5.07;;;;;;;27.78;40.03;102324.78;5030422;28;20037;-76